Time;durP1;ratioP1;P1;durP2;ratioP2;P2;SDS_P1;SDS_P2;PMS_P1;PMS_P2;Temp;Humidity;BMP_temperature;BMP_pressure;BME280_temperature;BME280_humidity;BME280_pressure;Samples;Min_cycle;Max_cycle;Signal;HPM_P1;HPM_P2
2023/03/25 00:02:09;;;;;;;;;3.75;1.00;;;;;11.10;64.05;100573.97;5063145;28;45294;-75
2023/03/25 00:04:38;;;;;;;;;1.00;1.00;;;;;11.07;64.12;100585.72;5062551;28;45213;-72
2023/03/25 00:07:03;;;;;;;;;0.00;0.00;;;;;11.07;63.98;100585.72;5053502;28;45392;-73
2023/03/25 00:09:29;;;;;;;;;0.00;0.00;;;;;10.97;64.28;100563.84;5071545;28;46114;-74
2023/03/25 00:11:54;;;;;;;;;1.00;1.00;;;;;10.87;64.62;100569.78;5073675;28;45470;-75
2023/03/25 00:14:20;;;;;;;;;0.00;0.00;;;;;10.95;64.63;100580.97;5077010;28;45306;-74
2023/03/25 00:16:47;;;;;;;;;2.00;0.00;;;;;10.86;64.90;100550.13;5077097;28;47290;-74
2023/03/25 00:19:14;;;;;;;;;0.00;0.00;;;;;11.03;65.11;100576.09;5072715;28;46603;-74
2023/03/25 00:21:43;;;;;;;;;0.00;0.00;;;;;10.99;65.01;100558.41;5075124;28;45427;-73
2023/03/25 00:24:09;;;;;;;;;1.00;0.00;;;;;10.96;65.29;100588.09;5077125;28;45522;-75
2023/03/25 00:26:34;;;;;;;;;1.50;1.00;;;;;10.99;65.51;100587.91;5076743;28;45495;-76
2023/03/25 00:29:00;;;;;;;;;1.00;1.00;;;;;11.01;65.66;100594.06;5076749;28;45709;-75
2023/03/25 05:33:09;;;;;;;;;0.00;0.00;;;;;10.96;65.21;100637.25;5054468;28;45583;-73
2023/03/25 05:35:35;;;;;;;;;0.00;0.00;;;;;11.04;65.10;100626.13;5058955;28;45328;-73
2023/03/25 05:38:01;;;;;;;;;0.00;0.00;;;;;10.89;64.87;100616.13;5062214;28;45537;-74
2023/03/25 05:40:27;;;;;;;;;0.00;0.00;;;;;11.11;64.82;100637.41;5054821;28;45304;-72
2023/03/25 05:42:53;;;;;;;;;0.00;0.00;;;;;11.15;64.44;100645.22;5073151;28;45402;-75
2023/03/25 05:45:19;;;;;;;;;0.50;0.50;;;;;11.11;63.81;100657.06;5056839;28;45376;-75
2023/03/25 05:47:44;;;;;;;;;2.00;0.00;;;;;11.10;64.01;100654.47;5061113;28;45252;-75
2023/03/25 05:50:10;;;;;;;;;0.00;0.00;;;;;11.10;64.31;100649.09;5055143;28;45295;-76
2023/03/25 05:52:36;;;;;;;;;2.25;1.00;;;;;11.12;64.33;100660.63;5075814;28;45441;-75
2023/03/25 05:55:03;;;;;;;;;1.50;0.00;;;;;11.03;64.76;100669.13;5073419;28;45969;-75
2023/03/25 05:57:29;;;;;;;;;0.00;0.00;;;;;10.94;64.70;100657.03;5067164;28;45348;-74
2023/03/25 05:59:54;;;;;;;;;0.00;0.00;;;;;10.98;65.08;100664.84;5075423;28;45364;-76
2023/03/25 06:02:20;;;;;;;;;1.00;1.00;;;;;11.04;65.04;100670.88;5064688;28;45396;-75
2023/03/25 06:04:49;;;;;;;;;0.00;0.00;;;;;11.03;64.84;100682.53;5058860;28;46441;-75
2023/03/25 06:07:21;;;;;;;;;0.00;0.00;;;;;11.04;64.89;100684.28;5052540;28;45527;-75
2023/03/25 06:09:47;;;;;;;;;2.00;0.00;;;;;10.87;65.28;100660.94;5056286;28;45516;-74
2023/03/25 06:12:15;;;;;;;;;2.25;0.00;;;;;10.98;65.67;100686.28;5064535;28;45340;-74
2023/03/25 06:14:44;;;;;;;;;0.00;0.00;;;;;10.96;65.86;100692.69;5073529;28;45539;-73
2023/03/25 06:17:20;;;;;;;;;2.00;0.00;;;;;10.93;66.48;100688.34;5073267;28;45559;-74
2023/03/25 06:19:47;;;;;;;;;1.00;0.25;;;;;10.92;66.06;100691.09;5074155;28;45518;-74
2023/03/25 06:22:12;;;;;;;;;0.25;0.00;;;;;10.95;65.77;100701.69;5073323;28;45149;-75
2023/03/25 06:24:39;;;;;;;;;1.00;0.00;;;;;10.99;65.92;100714.84;5068814;28;45285;-73
2023/03/25 06:27:07;;;;;;;;;2.00;0.00;;;;;10.95;66.01;100720.47;5058403;28;45581;-74
2023/03/25 06:29:36;;;;;;;;;0.00;0.00;;;;;10.98;66.01;100710.44;5075035;28;45383;-76
2023/03/25 06:32:02;;;;;;;;;1.25;0.50;;;;;11.03;65.83;100715.59;5074758;28;46336;-75
2023/03/25 06:34:31;;;;;;;;;0.00;0.00;;;;;10.98;66.10;100713.13;5057392;28;45469;-76
2023/03/25 06:36:57;;;;;;;;;1.75;0.00;;;;;10.92;66.47;100710.72;5070286;28;45358;-75
2023/03/25 06:39:22;;;;;;;;;0.00;0.00;;;;;10.99;66.61;100728.28;5055531;28;45375;-73
2023/03/25 06:41:47;;;;;;;;;0.00;0.00;;;;;10.91;66.96;100734.94;5068017;28;45512;-73
2023/03/25 06:44:12;;;;;;;;;0.00;0.00;;;;;10.85;66.76;100714.66;5055894;28;46172;-74
2023/03/25 06:46:38;;;;;;;;;0.00;0.00;;;;;10.97;66.66;100732.00;5065904;28;45429;-74
2023/03/25 06:49:03;;;;;;;;;1.00;1.00;;;;;10.92;66.26;100737.56;5054402;28;45324;-74
2023/03/25 06:51:29;;;;;;;;;0.00;0.00;;;;;11.00;66.39;100734.50;5070250;28;45453;-76
2023/03/25 06:53:54;;;;;;;;;0.25;0.00;;;;;11.06;66.19;100733.38;5074808;28;46066;-76
2023/03/25 06:56:20;;;;;;;;;0.00;0.00;;;;;10.91;65.83;100724.22;5074744;28;45482;-75
2023/03/25 06:58:45;;;;;;;;;0.25;0.25;;;;;10.96;66.37;100730.25;5055725;28;45494;-73
2023/03/25 07:01:11;;;;;;;;;0.00;0.00;;;;;10.98;65.99;100721.16;5054392;28;45468;-75
2023/03/25 07:03:36;;;;;;;;;0.00;0.00;;;;;11.04;65.49;100743.28;5049782;28;45368;-76
2023/03/25 07:06:03;;;;;;;;;1.00;0.00;;;;;11.05;65.83;100734.31;5074763;28;45236;-75
2023/03/25 07:08:29;;;;;;;;;2.50;0.00;;;;;11.21;65.55;100741.53;5056064;28;47240;-76
2023/03/25 07:11:06;;;;;;;;;1.50;0.00;;;;;11.10;65.38;100740.31;5072789;28;45418;-74
2023/03/25 07:13:32;;;;;;;;;0.75;0.75;;;;;11.15;65.33;100752.53;5054744;28;45391;-75
2023/03/25 07:15:59;;;;;;;;;3.00;2.00;;;;;11.22;65.21;100748.66;5066893;28;45466;-74
2023/03/25 07:18:25;;;;;;;;;1.75;0.00;;;;;11.32;64.89;100744.53;5073300;28;45416;-75
2023/03/25 07:20:50;;;;;;;;;0.00;0.00;;;;;11.45;64.49;100744.84;5072538;28;45248;-75
2023/03/25 07:23:16;;;;;;;;;1.50;0.25;;;;;11.43;64.44;100741.34;5057868;28;46234;-76
2023/03/25 07:25:41;;;;;;;;;0.00;0.00;;;;;11.45;64.12;100750.19;5053937;28;46011;-74
2023/03/25 07:28:06;;;;;;;;;0.75;0.00;;;;;11.58;63.90;100751.31;5054244;28;45541;-75
2023/03/25 07:30:32;;;;;;;;;0.00;0.00;;;;;11.68;63.87;100749.03;5067507;28;45318;-73
2023/03/25 07:32:57;;;;;;;;;0.50;0.00;;;;;11.68;63.36;100754.41;5065643;28;45640;-74
2023/03/25 07:35:23;;;;;;;;;4.00;1.00;;;;;11.62;62.64;100757.41;5072118;28;47123;-73
2023/03/25 07:37:48;;;;;;;;;0.75;0.50;;;;;11.60;63.16;100745.88;5061819;28;45755;-73
2023/03/25 07:40:14;;;;;;;;;0.00;0.00;;;;;11.72;62.80;100773.00;5054999;28;45518;-73
2023/03/25 07:42:39;;;;;;;;;0.25;0.25;;;;;11.73;61.48;100772.06;5069962;28;47244;-76
2023/03/25 07:45:05;;;;;;;;;2.75;0.75;;;;;11.65;62.08;100771.53;5061620;28;45489;-73
2023/03/25 07:47:31;;;;;;;;;0.00;0.00;;;;;11.59;61.77;100771.84;5074669;28;45497;-78
2023/03/25 07:49:56;;;;;;;;;3.00;0.00;;;;;11.73;61.92;100782.81;5069054;28;45387;-74
2023/03/25 07:52:22;;;;;;;;;1.00;1.00;;;;;11.61;61.48;100796.81;5073940;28;47225;-73
2023/03/25 07:54:47;;;;;;;;;1.25;0.50;;;;;11.70;62.00;100792.81;5073165;28;45320;-75
2023/03/25 07:57:12;;;;;;;;;1.00;0.00;;;;;11.68;61.75;100786.63;5053983;28;45371;-75
2023/03/25 07:59:38;;;;;;;;;2.00;0.00;;;;;11.78;61.17;100789.78;5053805;28;45432;-77
2023/03/25 08:02:03;;;;;;;;;2.50;1.00;;;;;11.83;61.51;100801.16;5055029;28;45982;-75
2023/03/25 08:04:29;;;;;;;;;0.25;0.25;;;;;11.94;60.97;100810.41;5068829;28;45609;-76
2023/03/25 08:06:54;;;;;;;;;7.25;0.00;;;;;11.97;60.29;100780.72;5073666;28;45376;-74
2023/03/25 08:09:20;;;;;;;;;0.00;0.00;;;;;12.07;59.62;100810.69;5068617;28;45513;-74
2023/03/25 08:11:47;;;;;;;;;1.00;1.00;;;;;11.96;59.54;100808.53;5063991;28;46311;-75
2023/03/25 08:14:13;;;;;;;;;1.00;1.00;;;;;12.07;58.69;100797.25;5053290;28;45527;-73
2023/03/25 08:16:38;;;;;;;;;1.75;0.75;;;;;12.10;59.22;100815.88;5053581;28;45332;-77
2023/03/25 08:19:03;;;;;;;;;0.75;0.75;;;;;12.03;59.06;100798.34;5063696;28;45627;-75
2023/03/25 08:21:29;;;;;;;;;3.00;0.00;;;;;12.20;59.22;100809.09;5044325;28;47140;-75
2023/03/25 08:24:01;;;;;;;;;3.75;0.50;;;;;12.33;58.52;100818.28;5062942;28;45371;-75
2023/03/25 08:26:33;;;;;;;;;1.00;0.00;;;;;12.29;58.69;100799.69;5068524;28;45280;-74
2023/03/25 08:29:01;;;;;;;;;1.00;0.00;;;;;12.42;58.39;100792.69;5073815;28;45502;-74
2023/03/25 08:31:29;;;;;;;;;3.00;0.00;;;;;12.63;58.36;100806.84;5073503;28;45296;-74
2023/03/25 08:34:06;;;;;;;;;2.25;0.00;;;;;12.75;57.16;100820.53;5074466;28;45490;-78
2023/03/25 08:36:32;;;;;;;;;0.00;0.00;;;;;12.63;57.24;100793.41;5057454;28;45491;-81
2023/03/25 08:38:57;;;;;;;;;3.00;0.50;;;;;12.81;57.04;100813.94;5066153;28;45477;-78
2023/03/25 08:41:23;;;;;;;;;1.00;0.00;;;;;12.90;56.62;100818.81;5071361;28;45548;-81
2023/03/25 08:43:49;;;;;;;;;0.00;0.00;;;;;12.74;56.62;100789.19;5041579;28;45376;-76
2023/03/25 08:46:15;;;;;;;;;2.00;0.50;;;;;12.75;57.00;100816.97;5075329;28;45516;-78
2023/03/25 08:48:40;;;;;;;;;2.00;1.00;;;;;12.71;57.23;100823.44;5076610;28;45430;-78
2023/03/25 08:51:06;;;;;;;;;0.50;0.50;;;;;12.60;57.53;100825.81;5053894;28;48136;-81
2023/03/25 08:53:31;;;;;;;;;0.00;0.00;;;;;12.64;56.44;100817.53;5057038;28;45632;-78
2023/03/25 08:55:58;;;;;;;;;2.00;0.75;;;;;12.75;57.09;100812.44;5062311;28;45480;-76
2023/03/25 08:58:25;;;;;;;;;0.50;0.50;;;;;12.90;56.04;100829.56;5069910;28;45515;-78
2023/03/25 09:00:54;;;;;;;;;0.50;0.00;;;;;12.73;55.96;100824.22;5065668;28;46379;-76
2023/03/25 09:03:22;;;;;;;;;2.75;0.50;;;;;12.74;56.21;100769.47;5070705;28;45804;-79
2023/03/25 09:05:47;;;;;;;;;0.00;0.00;;;;;12.78;55.92;100776.41;5047453;28;45402;-75
2023/03/25 09:08:13;;;;;;;;;2.00;2.00;;;;;12.94;56.21;100804.22;5076984;28;45390;-80
2023/03/25 09:10:39;;;;;;;;;1.00;1.00;;;;;13.06;56.19;100805.38;5061064;28;46703;-80
2023/03/25 09:13:05;;;;;;;;;3.25;1.00;;;;;13.09;56.16;100818.69;5057355;28;45499;-76
2023/03/25 09:15:30;;;;;;;;;2.00;1.00;;;;;12.93;55.99;100791.72;5062149;28;45268;-80
2023/03/25 09:17:56;;;;;;;;;2.00;0.00;;;;;13.15;55.43;100811.16;5068488;28;45222;-74
2023/03/25 09:20:21;;;;;;;;;3.00;1.75;;;;;13.24;55.12;100823.25;5062738;28;45514;-77
2023/03/25 09:22:47;;;;;;;;;3.00;0.00;;;;;13.23;55.87;100814.31;5064448;28;45349;-72
2023/03/25 09:25:12;;;;;;;;;1.00;1.00;;;;;13.27;55.68;100827.59;5063100;28;45704;-71
2023/03/25 09:27:39;;;;;;;;;0.00;0.00;;;;;13.26;53.72;100815.97;5068165;28;45311;-70
2023/03/25 09:30:05;;;;;;;;;0.75;0.75;;;;;13.41;53.49;100843.84;5055918;28;47160;-73
2023/03/25 09:32:32;;;;;;;;;1.00;1.00;;;;;13.43;53.45;100826.66;5058965;28;45421;-72
2023/03/25 09:34:57;;;;;;;;;0.50;0.00;;;;;13.48;53.35;100842.53;5071297;28;45349;-70
2023/03/25 09:37:23;;;;;;;;;2.00;0.50;;;;;13.43;52.37;100823.09;5064811;28;45525;-80
2023/03/25 09:39:48;;;;;;;;;4.25;1.00;;;;;13.49;52.77;100849.66;5064034;28;45645;-77
2023/03/25 09:42:36;;;;;;;;;0.00;0.00;;;;;13.40;53.15;100836.72;5068248;28;45262;-79
2023/03/25 09:45:14;;;;;;;;;4.00;0.00;;;;;13.64;53.11;100852.38;5059085;28;45608;-79
2023/03/25 09:48:21;;;;;;;;;2.75;0.00;;;;;13.38;53.15;100825.16;5056805;28;45627;-77
2023/03/25 09:50:47;;;;;;;;;1.00;0.00;;;;;13.43;53.63;100874.25;5059517;28;46363;-77
2023/03/25 09:53:44;;;;;;;;;1.00;1.00;;;;;13.22;53.64;100814.38;5058274;28;45883;-79
2023/03/25 09:56:23;;;;;;;;;0.00;0.00;;;;;13.31;53.90;100832.72;5037416;28;45384;-73
2023/03/25 09:58:52;;;;;;;;;0.00;0.00;;;;;13.51;54.16;100854.03;5067869;28;45576;-76
2023/03/25 10:01:29;;;;;;;;;0.00;0.00;;;;;13.55;54.02;100877.13;5070588;28;47197;-74
2023/03/25 10:04:01;;;;;;;;;0.75;0.75;;;;;13.60;54.13;100887.66;5068215;28;46809;-75
2023/03/25 10:06:27;;;;;;;;;0.00;0.00;;;;;13.53;53.89;100868.25;5063797;28;45750;-74
2023/03/25 10:09:11;;;;;;;;;0.00;0.00;;;;;13.77;54.10;100882.19;5064548;28;45656;-75
2023/03/25 10:11:39;;;;;;;;;0.00;0.00;;;;;13.85;54.26;100881.75;5035452;28;47349;-75
2023/03/25 10:14:17;;;;;;;;;0.00;0.00;;;;;13.90;54.48;100887.72;5054421;28;45313;-76
2023/03/25 10:17:19;;;;;;;;;2.00;0.00;;;;;13.76;54.32;100898.44;5055087;28;45497;-77
2023/03/25 10:19:57;;;;;;;;;2.50;0.00;;;;;13.71;54.19;100873.56;5054655;28;45324;-78
2023/03/25 10:22:33;;;;;;;;;0.00;0.00;;;;;13.85;54.13;100876.34;5054905;28;46058;-76
2023/03/25 10:25:08;;;;;;;;;0.00;0.00;;;;;13.79;53.89;100882.94;5054814;28;45497;-78
2023/03/25 10:27:45;;;;;;;;;0.00;0.00;;;;;13.96;53.84;100873.88;5055058;28;45336;-77
2023/03/25 10:30:17;;;;;;;;;0.00;0.00;;;;;13.99;52.56;100887.19;5055283;28;45403;-75
2023/03/25 10:32:48;;;;;;;;;2.50;1.00;;;;;14.09;51.96;100876.75;5055088;28;45403;-76
2023/03/25 10:35:29;;;;;;;;;2.00;0.00;;;;;14.12;52.30;100877.44;5036809;28;45229;-75
2023/03/25 10:38:09;;;;;;;;;3.75;1.00;;;;;14.22;51.79;100883.16;5054766;28;45395;-77
2023/03/25 10:40:43;;;;;;;;;0.50;0.50;;;;;14.26;52.60;100873.94;5054832;28;45212;-73
2023/03/25 10:43:25;;;;;;;;;3.50;0.75;;;;;14.40;52.00;100879.41;5054914;28;46155;-76
2023/03/25 10:45:55;;;;;;;;;0.75;0.75;;;;;14.57;52.22;100898.16;5054833;28;45356;-75
2023/03/25 10:48:26;;;;;;;;;2.25;0.25;;;;;14.55;52.40;100867.69;5054862;28;45173;-76
2023/03/25 10:51:05;;;;;;;;;0.75;0.75;;;;;14.66;52.00;100889.50;5054699;28;45882;-76
2023/03/25 10:53:31;;;;;;;;;2.00;0.00;;;;;14.64;51.80;100868.97;5054393;28;45491;-76
2023/03/25 10:56:08;;;;;;;;;2.00;0.00;;;;;14.71;51.47;100873.94;5050000;28;45785;-74
2023/03/25 10:58:37;;;;;;;;;1.00;1.00;;;;;14.75;51.66;100877.28;5064606;28;45480;-74
2023/03/25 11:01:17;;;;;;;;;0.25;0.25;;;;;14.73;51.01;100882.78;5074894;28;45592;-75
2023/03/25 11:03:45;;;;;;;;;0.00;0.00;;;;;14.75;51.42;100875.47;5074572;28;47219;-76
2023/03/25 11:06:23;;;;;;;;;0.00;0.00;;;;;14.73;50.82;100863.00;5074834;28;45307;-75
2023/03/25 11:08:57;;;;;;;;;0.25;0.25;;;;;14.77;50.14;100875.38;5056632;28;45352;-75
2023/03/25 11:11:31;;;;;;;;;1.00;0.00;;;;;14.59;49.90;100860.28;5074844;28;45603;-76
2023/03/25 11:13:56;;;;;;;;;4.50;0.75;;;;;14.66;49.83;100872.44;5056537;28;47969;-74
2023/03/25 11:16:22;;;;;;;;;0.25;0.00;;;;;14.79;50.05;100878.00;5074674;28;45466;-75
2023/03/25 11:18:51;;;;;;;;;2.00;2.00;;;;;14.71;50.27;100879.31;5074973;28;45247;-75
2023/03/25 11:21:17;;;;;;;;;0.00;0.00;;;;;14.81;49.54;100870.63;5074908;28;45503;-75
2023/03/25 11:23:46;;;;;;;;;1.00;1.00;;;;;14.80;49.88;100868.94;5075633;28;45504;-77
2023/03/25 11:26:19;;;;;;;;;2.75;1.00;;;;;15.00;49.96;100887.44;5077032;28;45512;-75
2023/03/25 11:28:51;;;;;;;;;1.00;1.00;;;;;15.00;50.12;100863.16;5076646;28;45389;-75
2023/03/25 11:31:19;;;;;;;;;1.00;1.00;;;;;14.96;49.88;100886.78;5075273;28;45326;-74
2023/03/25 11:34:02;;;;;;;;;0.00;0.00;;;;;15.03;49.32;100880.03;5074817;28;46533;-74
2023/03/25 11:36:31;;;;;;;;;0.00;0.00;;;;;14.85;49.99;100883.88;5074358;28;45433;-72
2023/03/25 11:39:15;;;;;;;;;2.50;1.00;;;;;14.88;50.10;100872.03;5073746;28;45241;-75
2023/03/25 11:41:40;;;;;;;;;0.50;0.50;;;;;15.10;49.91;100889.50;5074147;28;45461;-75
2023/03/25 11:44:21;;;;;;;;;2.25;0.25;;;;;15.46;49.52;100880.91;5074451;28;46472;-74
2023/03/25 11:46:51;;;;;;;;;0.00;0.00;;;;;15.57;48.59;100892.91;5074341;28;45350;-73
2023/03/25 11:49:21;;;;;;;;;0.50;0.50;;;;;15.61;48.69;100894.41;5077223;28;45354;-76
2023/03/25 11:52:00;;;;;;;;;1.00;1.00;;;;;15.70;48.49;100896.53;5073217;28;45394;-78
2023/03/25 11:54:26;;;;;;;;;3.00;1.00;;;;;15.77;48.35;100874.41;5040379;28;46211;-81
2023/03/25 11:56:53;;;;;;;;;4.75;1.00;;;;;15.83;48.37;100886.66;5071384;28;45250;-76
2023/03/25 11:59:34;;;;;;;;;0.00;0.00;;;;;15.70;48.00;100893.81;5041287;28;45387;-79
2023/03/25 12:02:02;;;;;;;;;0.50;0.00;;;;;15.72;48.75;100881.97;5053880;28;45404;-76
2023/03/25 12:04:28;;;;;;;;;1.00;1.00;;;;;16.08;48.66;100894.88;5053560;28;45289;-76
2023/03/25 12:07:08;;;;;;;;;0.00;0.00;;;;;16.27;48.17;100887.28;5035939;28;45362;-75
2023/03/25 12:09:34;;;;;;;;;3.00;0.00;;;;;16.22;47.99;100873.19;5055608;28;45252;-78
2023/03/25 12:12:23;;;;;;;;;1.00;0.25;;;;;16.40;47.36;100891.88;5057066;28;45343;-78
2023/03/25 12:15:15;;;;;;;;;1.00;1.00;;;;;16.81;46.31;100884.50;5057643;28;45685;-79
2023/03/25 12:17:51;;;;;;;;;1.00;1.00;;;;;16.93;46.30;100875.50;5057859;28;45466;-77
2023/03/25 12:20:55;;;;;;;;;2.00;2.00;;;;;16.94;46.91;100882.66;5057171;28;45417;-78
2023/03/25 12:23:39;;;;;;;;;0.00;0.00;;;;;16.99;47.13;100864.28;5056572;28;45490;-80
2023/03/25 12:26:11;;;;;;;;;0.00;0.00;;;;;16.83;46.63;100879.88;5064774;28;45401;-77
2023/03/25 12:28:58;;;;;;;;;1.00;0.00;;;;;16.50;47.96;100874.03;5077238;28;45633;-75
2023/03/25 12:31:41;;;;;;;;;1.25;0.75;;;;;16.33;50.66;100914.91;5077146;28;45318;-78
2023/03/25 12:34:30;;;;;;;;;4.00;0.00;;;;;16.53;50.87;100884.63;5077419;28;45308;-77
2023/03/25 12:37:13;;;;;;;;;0.00;0.00;;;;;16.77;50.08;100872.16;5058798;28;46672;-79
2023/03/25 12:40:23;;;;;;;;;0.00;0.00;;;;;18.04;45.04;100872.00;5077590;28;45398;-77
2023/03/25 12:43:21;;;;;;;;;0.75;0.75;;;;;19.13;42.45;100873.53;5070065;28;45412;-72
2023/03/25 12:45:57;;;;;;;;;2.00;0.00;;;;;19.67;39.77;100867.34;5077301;28;45489;-74
2023/03/25 12:48:32;;;;;;;;;2.00;0.00;;;;;20.19;38.40;100853.88;5063574;28;46598;-75
2023/03/25 12:51:39;;;;;;;;;2.00;1.00;;;;;20.08;37.73;100908.34;5055241;28;45533;-75
2023/03/25 12:54:38;;;;;;;;;2.25;0.75;;;;;19.29;38.66;100844.13;5062146;28;45366;-76
2023/03/25 12:57:03;;;;;;;;;0.00;0.00;;;;;18.81;39.70;100852.47;5040481;28;46048;-72
2023/03/25 12:59:41;;;;;;;;;0.50;0.50;;;;;18.41;41.06;100837.50;5071637;28;45997;-75
2023/03/25 13:02:18;;;;;;;;;0.50;0.50;;;;;18.54;40.98;100862.75;5076946;28;45340;-74
2023/03/25 13:04:50;;;;;;;;;1.50;0.00;;;;;18.98;40.25;100845.69;5060945;28;45433;-73
2023/03/25 13:07:21;;;;;;;;;0.25;0.25;;;;;19.26;39.98;100830.78;5056410;28;46044;-75
2023/03/25 13:09:59;;;;;;;;;2.00;0.00;;;;;19.27;39.58;100846.09;5063648;28;46330;-72
2023/03/25 13:12:36;;;;;;;;;2.00;0.25;;;;;19.23;39.57;100864.50;5076449;28;45485;-75
2023/03/25 13:15:21;;;;;;;;;0.00;0.00;;;;;18.44;40.87;100867.16;5076245;28;45379;-73
2023/03/25 13:17:56;;;;;;;;;1.25;0.00;;;;;18.35;41.68;100873.28;5076318;28;45577;-73
2023/03/25 13:20:24;;;;;;;;;1.50;1.00;;;;;18.75;41.76;100866.53;5075107;28;45466;-75
2023/03/25 13:22:56;;;;;;;;;0.25;0.25;;;;;19.04;41.02;100836.22;5075995;28;45500;-73
2023/03/25 13:25:43;;;;;;;;;0.50;0.50;;;;;19.51;39.10;100848.72;5076394;28;45747;-77
2023/03/25 13:28:14;;;;;;;;;2.00;0.00;;;;;20.02;38.75;100846.25;5041874;28;45398;-75
2023/03/25 13:30:44;;;;;;;;;0.75;0.75;;;;;20.01;38.21;100834.50;5075345;28;45517;-73
2023/03/25 13:33:15;;;;;;;;;0.50;0.50;;;;;20.19;37.90;100844.84;5063521;28;45493;-73
2023/03/25 13:36:16;;;;;;;;;0.75;0.00;;;;;20.21;37.43;100843.72;5056138;28;45216;-75
2023/03/25 13:38:50;;;;;;;;;0.00;0.00;;;;;19.87;37.43;100855.72;4973810;28;45614;-71
2023/03/25 13:41:25;;;;;;;;;3.50;0.25;;;;;19.82;37.26;100861.50;5030665;28;46098;-72
2023/03/25 13:44:03;;;;;;;;;0.25;0.25;;;;;19.75;38.07;100840.38;5055891;28;45430;-73
2023/03/25 13:46:39;;;;;;;;;2.25;0.00;;;;;19.37;38.73;100825.34;5055779;28;45244;-71
2023/03/25 13:49:14;;;;;;;;;1.50;0.75;;;;;19.79;39.14;100831.00;5055491;28;45405;-76
2023/03/25 13:51:39;;;;;;;;;1.50;0.50;;;;;19.88;38.27;100852.00;5066982;28;45305;-74
2023/03/25 13:54:34;;;;;;;;;0.75;0.75;;;;;20.02;37.25;100830.81;5054983;28;53769;-73
2023/03/25 13:57:14;;;;;;;;;0.50;0.50;;;;;20.40;36.82;100848.53;5060357;28;45307;-77
2023/03/25 13:59:59;;;;;;;;;0.50;0.00;;;;;20.43;35.91;100858.25;5058523;28;45303;-76
2023/03/25 14:02:37;;;;;;;;;1.00;0.75;;;;;20.53;36.47;100837.41;5037270;28;48011;-78
2023/03/25 14:05:21;;;;;;;;;2.00;0.50;;;;;20.18;36.97;100819.47;5055626;28;45298;-79
2023/03/25 14:07:49;;;;;;;;;1.75;1.75;;;;;20.24;36.28;100862.53;5055038;28;45368;-78
2023/03/25 14:10:46;;;;;;;;;3.50;2.50;;;;;20.08;36.25;100836.72;5037231;28;47127;-77
2023/03/25 14:13:35;;;;;;;;;4.25;4.25;;;;;19.87;36.30;100832.09;5064162;28;45902;-76
2023/03/25 14:16:24;;;;;;;;;4.25;3.00;;;;;19.60;37.00;100851.53;5075255;28;45363;-77
2023/03/25 14:18:53;;;;;;;;;2.50;1.75;;;;;19.45;37.66;100833.75;5075047;28;45785;-74
2023/03/25 14:21:33;;;;;;;;;1.00;1.00;;;;;19.45;37.71;100841.03;5075505;28;45379;-79
2023/03/25 14:24:03;;;;;;;;;1.00;1.00;;;;;18.49;38.88;100832.34;5056434;28;47900;-77
2023/03/25 14:26:28;;;;;;;;;1.50;0.25;;;;;18.31;39.02;100822.91;5075271;28;45338;-78
2023/03/25 14:28:56;;;;;;;;;1.00;1.00;;;;;18.16;39.42;100835.81;5075234;28;45480;-75
2023/03/25 14:31:21;;;;;;;;;2.75;1.00;;;;;18.12;39.42;100845.16;5074763;28;46457;-78
2023/03/25 14:33:59;;;;;;;;;3.50;0.50;;;;;18.64;38.42;100833.91;5073315;28;46070;-75
2023/03/25 14:36:50;;;;;;;;;0.00;0.00;;;;;18.52;37.72;100854.72;5072925;28;45444;-76
2023/03/25 14:39:28;;;;;;;;;1.00;1.00;;;;;19.38;36.40;100840.66;5060127;28;45521;-76
2023/03/25 14:41:54;;;;;;;;;0.50;0.50;;;;;20.21;34.95;100834.69;5074946;28;46023;-76
2023/03/25 14:44:19;;;;;;;;;0.00;0.00;;;;;20.56;34.42;100832.59;5075410;28;45200;-76
2023/03/25 14:46:45;;;;;;;;;3.75;0.00;;;;;20.72;33.55;100832.13;5075279;28;45279;-76
2023/03/25 14:49:21;;;;;;;;;1.00;1.00;;;;;21.17;33.44;100832.72;5075044;28;46669;-77
2023/03/25 14:51:55;;;;;;;;;1.00;1.00;;;;;21.59;31.65;100800.72;5056583;28;45191;-77
2023/03/25 14:54:33;;;;;;;;;0.50;0.50;;;;;22.05;31.21;100813.75;5054380;28;45450;-75
2023/03/25 14:57:13;;;;;;;;;3.25;0.50;;;;;22.31;30.29;100788.59;5048194;28;45441;-80
2023/03/25 14:59:42;;;;;;;;;0.75;0.00;;;;;22.30;30.64;100819.63;5058673;28;45333;-77
2023/03/25 15:02:20;;;;;;;;;1.75;0.25;;;;;21.49;31.51;100781.59;5074921;28;45397;-77
2023/03/25 15:05:02;;;;;;;;;0.25;0.00;;;;;21.02;32.14;100804.88;5074582;28;47073;-76
2023/03/25 15:08:13;;;;;;;;;2.25;0.75;;;;;20.62;33.17;100815.69;5074414;28;45497;-77
2023/03/25 15:10:43;;;;;;;;;3.25;0.25;;;;;20.69;32.96;100800.53;5071225;28;45340;-76
2023/03/25 15:13:17;;;;;;;;;0.25;0.00;;;;;20.90;32.68;100803.28;5075006;28;45508;-76
2023/03/25 15:15:46;;;;;;;;;0.50;0.00;;;;;21.52;32.47;100805.84;5074702;28;46411;-76
2023/03/25 15:18:32;;;;;;;;;0.00;0.00;;;;;21.75;31.83;100786.53;5074903;28;45413;-79
2023/03/25 15:21:09;;;;;;;;;0.25;0.25;;;;;21.72;31.53;100803.16;5074702;28;45611;-76
2023/03/25 15:23:49;;;;;;;;;2.00;0.00;;;;;21.82;32.16;100804.94;5074374;28;45517;-76
2023/03/25 15:26:33;;;;;;;;;4.00;0.25;;;;;21.36;32.26;100799.19;5074886;28;46262;-76
2023/03/25 15:29:23;;;;;;;;;0.00;0.00;;;;;20.98;32.85;100808.03;5074691;28;45304;-77
2023/03/25 15:32:17;;;;;;;;;0.75;0.75;;;;;20.77;32.30;100816.22;5074920;28;45279;-76
2023/03/25 15:34:45;;;;;;;;;2.50;0.00;;;;;20.69;33.13;100811.44;5074973;28;45324;-76
2023/03/25 15:37:31;;;;;;;;;1.75;0.00;;;;;20.60;33.05;100814.97;5074106;28;45200;-76
2023/03/25 15:40:16;;;;;;;;;2.00;0.00;;;;;20.53;33.34;100780.22;5074614;28;45348;-76
2023/03/25 15:43:22;;;;;;;;;1.00;1.00;;;;;20.64;32.93;100816.44;5074833;28;45375;-76
2023/03/25 15:46:09;;;;;;;;;4.00;0.00;;;;;21.06;33.28;100816.41;5078037;28;45493;-75
2023/03/25 15:48:53;;;;;;;;;0.00;0.00;;;;;21.32;32.06;100812.25;5077718;28;45410;-76
2023/03/25 15:51:48;;;;;;;;;0.25;0.25;;;;;21.08;32.13;100782.56;5064515;28;45390;-77
2023/03/25 15:54:23;;;;;;;;;0.00;0.00;;;;;21.31;31.87;100812.38;5068029;28;45320;-77
2023/03/25 15:56:53;;;;;;;;;0.00;0.00;;;;;21.44;31.24;100816.59;5060513;28;45543;-77
2023/03/25 15:59:41;;;;;;;;;0.75;0.00;;;;;21.64;31.05;100812.06;5063242;28;46157;-77
2023/03/25 16:02:43;;;;;;;;;1.50;0.75;;;;;21.43;29.94;100798.53;5057640;28;45174;-77
2023/03/25 16:05:13;;;;;;;;;0.75;0.75;;;;;21.52;30.46;100807.75;5057827;28;45334;-77
2023/03/25 16:07:41;;;;;;;;;2.00;1.25;;;;;21.44;30.42;100824.78;5057052;28;45345;-79
2023/03/25 16:10:18;;;;;;;;;0.00;0.00;;;;;21.05;31.47;100806.50;5057269;28;45485;-77
2023/03/25 16:12:46;;;;;;;;;4.25;0.00;;;;;21.18;30.24;100844.47;5057245;28;45185;-77
2023/03/25 16:15:24;;;;;;;;;2.50;0.25;;;;;21.03;30.69;100822.09;5057431;28;45332;-77
2023/03/25 16:17:50;;;;;;;;;0.00;0.00;;;;;21.01;30.97;100794.16;5038993;28;47432;-77
2023/03/25 16:20:20;;;;;;;;;1.00;1.00;;;;;21.06;30.77;100810.94;5057570;28;45468;-79
2023/03/25 16:22:49;;;;;;;;;0.00;0.00;;;;;21.27;30.86;100805.47;5063797;28;45324;-75
2023/03/25 16:25:44;;;;;;;;;2.00;0.00;;;;;21.28;30.36;100821.69;5077341;28;45366;-78
2023/03/25 16:28:37;;;;;;;;;0.75;0.00;;;;;20.88;29.57;100821.59;5076774;28;46636;-76
2023/03/25 16:31:03;;;;;;;;;2.00;1.00;;;;;20.62;30.17;100801.22;5071064;28;46202;-76
2023/03/25 16:33:38;;;;;;;;;0.00;0.00;;;;;20.65;30.89;100814.59;5076629;28;45418;-76
2023/03/25 16:36:13;;;;;;;;;1.75;0.00;;;;;20.78;30.91;100824.28;5058887;28;45412;-78
2023/03/25 16:38:39;;;;;;;;;0.50;0.50;;;;;20.67;32.05;100824.31;5076409;28;45379;-77
2023/03/25 16:41:13;;;;;;;;;0.00;0.00;;;;;20.49;31.96;100815.06;5058451;28;46661;-76
2023/03/25 16:43:39;;;;;;;;;0.25;0.25;;;;;20.12;32.79;100828.16;5077127;28;45612;-77
2023/03/25 16:46:07;;;;;;;;;0.00;0.00;;;;;20.14;33.47;100814.44;5077235;28;45397;-77
2023/03/25 16:48:38;;;;;;;;;2.75;1.00;;;;;19.95;34.14;100821.44;5076603;28;45391;-77
2023/03/25 16:51:14;;;;;;;;;2.50;1.00;;;;;19.64;34.16;100804.09;5046017;28;46314;-77
2023/03/25 16:53:40;;;;;;;;;1.75;1.00;;;;;19.61;34.66;100819.78;5062346;28;45389;-77